Time;durP1;ratioP1;P1;durP2;ratioP2;P2;SDS_P1;SDS_P2;PMS_P1;PMS_P2;Temp;Humidity;BMP_temperature;BMP_pressure;BME280_temperature;BME280_humidity;BME280_pressure;Samples;Min_cycle;Max_cycle;Signal;HPM_P1;HPM_P2
2023/12/28 00:01:27;;;;;;;4.23;2.60;;;;;;;;;;5085141;28;20218;-79
2023/12/28 00:03:53;;;;;;;4.50;2.63;;;;;;;;;;5087955;28;20214;-78
2023/12/28 00:06:19;;;;;;;4.33;2.33;;;;;;;;;;5081626;28;20211;-78
2023/12/28 00:08:45;;;;;;;4.27;2.40;;;;;;;;;;5084112;28;20203;-78
2023/12/28 00:11:11;;;;;;;7.20;2.37;;;;;;;;;;5088217;28;20167;-78
2023/12/28 00:13:37;;;;;;;6.87;2.57;;;;;;;;;;5084547;28;20333;-79
2023/12/28 00:16:04;;;;;;;4.03;2.50;;;;;;;;;;5075252;28;20337;-78
2023/12/28 00:18:30;;;;;;;3.80;1.87;;;;;;;;;;5087311;28;20233;-80
2023/12/28 00:20:56;;;;;;;5.47;2.80;;;;;;;;;;5084265;28;20202;-78
2023/12/28 00:23:22;;;;;;;5.20;2.30;;;;;;;;;;5083382;28;20191;-79
2023/12/28 00:25:48;;;;;;;4.40;2.10;;;;;;;;;;5083885;28;20179;-79
2023/12/28 00:28:14;;;;;;;5.53;2.43;;;;;;;;;;5086418;28;20210;-79
2023/12/28 00:30:40;;;;;;;4.50;2.57;;;;;;;;;;5082809;28;20634;-79
2023/12/28 00:33:06;;;;;;;8.37;2.63;;;;;;;;;;5087216;28;20225;-79
2023/12/28 00:35:32;;;;;;;6.90;2.33;;;;;;;;;;5083039;28;20187;-79
2023/12/28 00:37:58;;;;;;;4.50;2.30;;;;;;;;;;5085273;28;20594;-78
2023/12/28 00:40:24;;;;;;;5.23;2.07;;;;;;;;;;5083895;28;20209;-79
2023/12/28 00:42:50;;;;;;;5.83;2.23;;;;;;;;;;5083278;28;20210;-78
2023/12/28 00:45:16;;;;;;;5.60;2.50;;;;;;;;;;5064063;28;20281;-78
2023/12/28 00:47:43;;;;;;;4.07;2.37;;;;;;;;;;5080944;28;20641;-78
2023/12/28 00:50:11;;;;;;;3.67;2.17;;;;;;;;;;5085446;28;20193;-78
2023/12/28 00:52:37;;;;;;;5.33;2.20;;;;;;;;;;5084903;28;20278;-78
2023/12/28 00:55:03;;;;;;;5.10;2.30;;;;;;;;;;5081888;28;20202;-78
2023/12/28 00:57:29;;;;;;;5.50;2.27;;;;;;;;;;5086852;28;20266;-77
2023/12/28 00:59:55;;;;;;;2.10;1.67;;;;;;;;;;5088529;28;20226;-78
2023/12/28 01:02:21;;;;;;;4.20;1.40;;;;;;;;;;5088984;28;20181;-78
2023/12/28 01:04:47;;;;;;;3.90;2.00;;;;;;;;;;5088050;28;20245;-79
2023/12/28 01:07:13;;;;;;;3.83;2.07;;;;;;;;;;5088190;28;20202;-79
2023/12/28 01:09:39;;;;;;;4.43;2.17;;;;;;;;;;5085532;28;20245;-78
2023/12/28 01:12:06;;;;;;;5.53;2.93;;;;;;;;;;5085833;28;20651;-78
2023/12/28 01:14:32;;;;;;;3.87;2.00;;;;;;;;;;5093669;28;20213;-77
2023/12/28 01:16:58;;;;;;;3.60;1.70;;;;;;;;;;5087685;28;20175;-78
2023/12/28 01:19:24;;;;;;;3.03;1.63;;;;;;;;;;5086748;28;20712;-79
2023/12/28 01:21:51;;;;;;;4.90;2.23;;;;;;;;;;5084640;28;20206;-79
2023/12/28 01:24:17;;;;;;;2.97;2.40;;;;;;;;;;5086324;28;20298;-80
2023/12/28 01:26:43;;;;;;;4.37;1.97;;;;;;;;;;5083634;28;20286;-79
2023/12/28 01:29:09;;;;;;;3.20;1.53;;;;;;;;;;5090016;28;20231;-79
2023/12/28 01:31:35;;;;;;;4.77;2.10;;;;;;;;;;5086121;28;20210;-79
2023/12/28 01:34:01;;;;;;;2.27;1.80;;;;;;;;;;5092434;28;20262;-81
2023/12/28 01:36:29;;;;;;;3.20;2.07;;;;;;;;;;5103720;28;20264;-80
2023/12/28 01:38:55;;;;;;;5.40;1.80;;;;;;;;;;5101671;28;20262;-80
2023/12/28 01:41:21;;;;;;;3.10;2.00;;;;;;;;;;5105493;28;20176;-80
2023/12/28 01:43:47;;;;;;;2.60;1.60;;;;;;;;;;5103653;28;20194;-80
2023/12/28 01:46:18;;;;;;;3.27;2.00;;;;;;;;;;5099880;28;20236;-80
2023/12/28 01:48:45;;;;;;;3.17;1.80;;;;;;;;;;5099966;28;20222;-80
2023/12/28 01:51:15;;;;;;;3.03;1.70;;;;;;;;;;5082428;28;20203;-80
2023/12/28 01:53:41;;;;;;;2.53;1.50;;;;;;;;;;5099690;28;20252;-80
2023/12/28 01:56:08;;;;;;;3.00;1.57;;;;;;;;;;5075454;28;20171;-80
2023/12/28 01:58:35;;;;;;;2.87;1.57;;;;;;;;;;5085644;28;20222;-80
2023/12/28 02:01:01;;;;;;;3.30;1.87;;;;;;;;;;5086395;28;20704;-79
2023/12/28 02:03:28;;;;;;;5.77;1.70;;;;;;;;;;5079374;28;20203;-79
2023/12/28 02:05:54;;;;;;;2.73;1.30;;;;;;;;;;5084266;28;20232;-79
2023/12/28 02:08:20;;;;;;;1.53;1.20;;;;;;;;;;5085721;28;20189;-80
2023/12/28 02:10:46;;;;;;;2.03;1.57;;;;;;;;;;5083258;28;20624;-79
2023/12/28 02:13:12;;;;;;;4.13;1.40;;;;;;;;;;5084310;28;20202;-77
2023/12/28 02:15:38;;;;;;;2.33;1.60;;;;;;;;;;5082181;28;20278;-78
2023/12/28 02:18:04;;;;;;;2.17;1.20;;;;;;;;;;5083274;28;20206;-79
2023/12/28 02:20:31;;;;;;;2.50;1.53;;;;;;;;;;5086774;28;20202;-79
2023/12/28 02:22:57;;;;;;;4.50;2.30;;;;;;;;;;5084379;28;20170;-79
2023/12/28 02:25:23;;;;;;;2.17;1.60;;;;;;;;;;5084315;28;20199;-79
2023/12/28 02:27:50;;;;;;;2.13;1.43;;;;;;;;;;5082406;28;20290;-79
2023/12/28 02:30:22;;;;;;;4.30;1.77;;;;;;;;;;5077841;28;20202;-78
2023/12/28 02:32:53;;;;;;;4.07;1.70;;;;;;;;;;5078912;28;20217;-78
2023/12/28 02:35:24;;;;;;;2.40;1.53;;;;;;;;;;5077914;28;20625;-78
2023/12/28 02:37:52;;;;;;;2.50;1.30;;;;;;;;;;5078751;28;20241;-78
2023/12/28 02:40:19;;;;;;;1.73;1.43;;;;;;;;;;5069970;28;20202;-78
2023/12/28 02:42:45;;;;;;;2.17;1.13;;;;;;;;;;5082809;28;20207;-78
2023/12/28 02:45:11;;;;;;;2.37;1.20;;;;;;;;;;5075368;28;20209;-79
2023/12/28 02:47:37;;;;;;;2.43;1.20;;;;;;;;;;5083084;28;20234;-78
2023/12/28 02:50:03;;;;;;;1.80;1.03;;;;;;;;;;5084457;28;20179;-79
2023/12/28 02:52:29;;;;;;;1.67;1.20;;;;;;;;;;5089587;28;20209;-79
2023/12/28 02:54:55;;;;;;;2.63;1.10;;;;;;;;;;5081457;28;20290;-79
2023/12/28 02:57:21;;;;;;;1.77;1.10;;;;;;;;;;5080679;28;20205;-78
2023/12/28 02:59:47;;;;;;;1.20;1.03;;;;;;;;;;5082368;28;20215;-79
2023/12/28 03:02:13;;;;;;;1.03;0.93;;;;;;;;;;5079628;28;20186;-78
2023/12/28 03:04:39;;;;;;;1.90;1.23;;;;;;;;;;5086202;28;20523;-79
2023/12/28 03:07:07;;;;;;;1.83;1.30;;;;;;;;;;5081731;28;20245;-78
2023/12/28 03:09:34;;;;;;;1.57;1.00;;;;;;;;;;5077289;28;20721;-78
2023/12/28 03:12:00;;;;;;;2.03;0.90;;;;;;;;;;5077603;28;20210;-79
2023/12/28 03:14:26;;;;;;;2.63;1.00;;;;;;;;;;5082127;28;20230;-78
2023/12/28 03:16:52;;;;;;;1.80;1.13;;;;;;;;;;5074372;28;20206;-79
2023/12/28 03:19:18;;;;;;;3.27;0.97;;;;;;;;;;5077932;28;20592;-78
2023/12/28 03:21:44;;;;;;;1.93;1.10;;;;;;;;;;5079264;28;20206;-79
2023/12/28 03:24:10;;;;;;;3.33;1.23;;;;;;;;;;5079515;28;20209;-78
2023/12/28 03:26:39;;;;;;;1.83;1.00;;;;;;;;;;5078022;28;20230;-78
2023/12/28 03:29:08;;;;;;;3.33;1.10;;;;;;;;;;5078971;28;20199;-78
2023/12/28 03:31:39;;;;;;;1.97;1.20;;;;;;;;;;5074677;28;20737;-78
2023/12/28 03:34:05;;;;;;;1.57;0.90;;;;;;;;;;5082324;28;20241;-79
2023/12/28 03:36:30;;;;;;;2.27;1.20;;;;;;;;;;5085012;28;20706;-79
2023/12/28 03:38:56;;;;;;;1.50;0.93;;;;;;;;;;5078865;28;20250;-80
2023/12/28 03:41:23;;;;;;;1.77;1.20;;;;;;;;;;5082322;28;20179;-78
2023/12/28 03:43:49;;;;;;;4.53;1.20;;;;;;;;;;5077072;28;20170;-78
2023/12/28 03:46:15;;;;;;;1.10;0.90;;;;;;;;;;5060997;28;20625;-78
2023/12/28 03:48:41;;;;;;;1.73;1.03;;;;;;;;;;5079951;28;20222;-78
2023/12/28 03:51:07;;;;;;;1.90;1.30;;;;;;;;;;5074668;28;20199;-79
2023/12/28 03:53:33;;;;;;;1.90;1.13;;;;;;;;;;5083346;28;20731;-78
2023/12/28 03:55:59;;;;;;;1.13;0.80;;;;;;;;;;5074570;28;20188;-78
2023/12/28 03:58:25;;;;;;;1.53;0.73;;;;;;;;;;5076585;28;20697;-79
2023/12/28 04:00:51;;;;;;;2.37;1.33;;;;;;;;;;5079107;28;20211;-78
2023/12/28 04:03:17;;;;;;;3.33;1.17;;;;;;;;;;5075580;28;20675;-78
2023/12/28 04:05:44;;;;;;;2.47;1.03;;;;;;;;;;5075956;28;20210;-78
2023/12/28 04:08:10;;;;;;;2.07;0.97;;;;;;;;;;5073461;28;20245;-78
2023/12/28 04:10:39;;;;;;;4.90;1.30;;;;;;;;;;5078407;28;20234;-78
2023/12/28 04:13:05;;;;;;;1.57;1.20;;;;;;;;;;5076405;28;20582;-78
2023/12/28 04:15:31;;;;;;;1.63;1.10;;;;;;;;;;5075718;28;20230;-78
2023/12/28 04:17:57;;;;;;;1.20;0.97;;;;;;;;;;5074494;28;20225;-78
2023/12/28 04:20:24;;;;;;;1.40;1.00;;;;;;;;;;5077146;28;20209;-78
2023/12/28 04:22:49;;;;;;;2.17;1.00;;;;;;;;;;5081507;28;20190;-77
2023/12/28 04:25:18;;;;;;;1.37;0.90;;;;;;;;;;5077088;28;20195;-78
2023/12/28 04:27:44;;;;;;;0.87;0.73;;;;;;;;;;5079564;28;20214;-78
2023/12/28 04:30:13;;;;;;;2.40;1.10;;;;;;;;;;5077653;28;20214;-77
2023/12/28 04:32:39;;;;;;;1.17;0.80;;;;;;;;;;5080726;28;20214;-78
2023/12/28 04:35:06;;;;;;;1.40;1.10;;;;;;;;;;5077576;28;20171;-78
2023/12/28 04:37:32;;;;;;;2.17;1.23;;;;;;;;;;5076724;28;20289;-80
2023/12/28 04:39:59;;;;;;;1.27;0.90;;;;;;;;;;5085546;28;20223;-80
2023/12/28 04:42:25;;;;;;;4.67;1.37;;;;;;;;;;5082041;28;20219;-80
2023/12/28 04:44:51;;;;;;;2.33;1.10;;;;;;;;;;5082768;28;20218;-77
2023/12/28 04:47:17;;;;;;;3.37;1.23;;;;;;;;;;5081465;28;20582;-80
2023/12/28 04:49:43;;;;;;;1.37;0.80;;;;;;;;;;5082576;28;20223;-80
2023/12/28 04:52:09;;;;;;;1.57;1.07;;;;;;;;;;5082283;28;20699;-80
2023/12/28 04:54:35;;;;;;;2.17;1.10;;;;;;;;;;5081418;28;20238;-81
2023/12/28 04:57:01;;;;;;;2.27;0.77;;;;;;;;;;5083059;28;20301;-80
2023/12/28 04:59:27;;;;;;;1.07;0.83;;;;;;;;;;5086390;28;20677;-80
2023/12/28 05:01:53;;;;;;;3.47;1.50;;;;;;;;;;5081168;28;20261;-78
2023/12/28 05:04:19;;;;;;;1.80;1.20;;;;;;;;;;5081473;28;20246;-80
2023/12/28 05:06:45;;;;;;;1.87;1.10;;;;;;;;;;5083768;28;20582;-80
2023/12/28 05:09:11;;;;;;;2.80;1.03;;;;;;;;;;5080468;28;20214;-77
2023/12/28 05:11:37;;;;;;;1.57;1.00;;;;;;;;;;5079215;28;20253;-77
2023/12/28 05:14:03;;;;;;;1.07;0.90;;;;;;;;;;5074825;28;20202;-78
2023/12/28 05:16:29;;;;;;;1.57;1.13;;;;;;;;;;5071706;28;20207;-78
2023/12/28 05:18:55;;;;;;;2.53;1.27;;;;;;;;;;5082780;28;20226;-78
2023/12/28 05:21:21;;;;;;;2.90;1.33;;;;;;;;;;5078142;28;20207;-79
2023/12/28 05:23:47;;;;;;;1.27;0.73;;;;;;;;;;5087259;28;20207;-78
2023/12/28 05:26:13;;;;;;;2.37;1.10;;;;;;;;;;5084434;28;20194;-78
2023/12/28 05:28:39;;;;;;;2.50;1.50;;;;;;;;;;5079661;28;20294;-78
2023/12/28 05:31:05;;;;;;;2.27;1.10;;;;;;;;;;5084579;28;20229;-78
2023/12/28 05:33:32;;;;;;;5.50;1.10;;;;;;;;;;5082927;28;20207;-79
2023/12/28 05:35:58;;;;;;;2.20;1.00;;;;;;;;;;5085012;28;20761;-77
2023/12/28 05:38:24;;;;;;;1.80;1.00;;;;;;;;;;5092001;28;20210;-79
2023/12/28 05:40:50;;;;;;;1.67;1.10;;;;;;;;;;5087946;28;20186;-79
2023/12/28 05:43:16;;;;;;;1.93;1.20;;;;;;;;;;5090657;28;20666;-80
2023/12/28 05:45:42;;;;;;;2.80;1.10;;;;;;;;;;5094890;28;20211;-79
2023/12/28 05:48:08;;;;;;;1.90;1.20;;;;;;;;;;5086944;28;20225;-79
2023/12/28 05:50:34;;;;;;;1.37;0.87;;;;;;;;;;5084493;28;20218;-78
2023/12/28 05:53:00;;;;;;;4.57;1.20;;;;;;;;;;5085140;28;20179;-77
2023/12/28 05:55:26;;;;;;;2.17;1.23;;;;;;;;;;5077879;28;20214;-78
2023/12/28 05:57:52;;;;;;;1.87;0.90;;;;;;;;;;5083951;28;20219;-79
2023/12/28 06:00:18;;;;;;;2.63;1.30;;;;;;;;;;5083185;28;20211;-79
2023/12/28 06:02:46;;;;;;;2.53;1.30;;;;;;;;;;5086172;28;20293;-78
2023/12/28 06:05:12;;;;;;;4.03;1.50;;;;;;;;;;5080834;28;20179;-79
2023/12/28 06:07:38;;;;;;;1.40;0.83;;;;;;;;;;5086174;28;20309;-79
2023/12/28 06:10:04;;;;;;;2.23;1.20;;;;;;;;;;5084731;28;20205;-79
2023/12/28 06:12:30;;;;;;;3.93;1.13;;;;;;;;;;5079246;28;20230;-78
2023/12/28 06:14:56;;;;;;;1.53;0.77;;;;;;;;;;5082197;28;20214;-78
2023/12/28 06:17:22;;;;;;;1.80;0.93;;;;;;;;;;5081167;28;20549;-76
2023/12/28 06:19:49;;;;;;;1.70;0.90;;;;;;;;;;5079701;28;20206;-78
2023/12/28 06:22:15;;;;;;;1.13;0.90;;;;;;;;;;5080503;28;20225;-78
2023/12/28 06:24:41;;;;;;;1.10;0.83;;;;;;;;;;5081910;28;20651;-78
2023/12/28 06:27:08;;;;;;;1.23;1.10;;;;;;;;;;5080704;28;20264;-78
2023/12/28 06:29:34;;;;;;;1.50;1.17;;;;;;;;;;5087939;28;20293;-78
2023/12/28 06:32:00;;;;;;;1.97;1.10;;;;;;;;;;5079224;28;20646;-78
2023/12/28 06:34:26;;;;;;;3.27;1.33;;;;;;;;;;5076350;28;20260;-78
2023/12/28 06:36:52;;;;;;;1.70;1.40;;;;;;;;;;5082767;28;20266;-78
2023/12/28 06:39:19;;;;;;;3.33;1.33;;;;;;;;;;5082846;28;20654;-78
2023/12/28 06:41:48;;;;;;;2.80;1.20;;;;;;;;;;5086031;28;20243;-79
2023/12/28 06:44:14;;;;;;;1.47;1.37;;;;;;;;;;5081725;28;20229;-78
2023/12/28 06:46:40;;;;;;;2.17;1.00;;;;;;;;;;5062985;28;20278;-79
2023/12/28 06:49:06;;;;;;;3.27;1.30;;;;;;;;;;5082537;28;20206;-78
2023/12/28 06:51:33;;;;;;;1.57;1.03;;;;;;;;;;5084090;28;20286;-78
2023/12/28 06:53:59;;;;;;;1.77;0.97;;;;;;;;;;5081882;28;20217;-78
2023/12/28 06:56:25;;;;;;;1.23;1.10;;;;;;;;;;5083807;28;20539;-78
2023/12/28 06:58:51;;;;;;;3.13;1.00;;;;;;;;;;5080084;28;20206;-79
2023/12/28 07:01:18;;;;;;;1.23;1.00;;;;;;;;;;5080684;28;20203;-79
2023/12/28 07:03:44;;;;;;;2.73;1.20;;;;;;;;;;5085601;28;20198;-78
2023/12/28 07:06:10;;;;;;;1.87;1.00;;;;;;;;;;5077885;28;20214;-78
2023/12/28 07:08:36;;;;;;;4.80;1.20;;;;;;;;;;5081896;28;20454;-78
2023/12/28 07:11:03;;;;;;;1.80;1.00;;;;;;;;;;5086099;28;20178;-79
2023/12/28 07:13:29;;;;;;;1.43;0.90;;;;;;;;;;5082410;28;20213;-80
2023/12/28 07:15:55;;;;;;;2.43;1.20;;;;;;;;;;5080008;28;20206;-79
2023/12/28 07:18:21;;;;;;;1.53;0.90;;;;;;;;;;5084096;28;20821;-78
2023/12/28 07:20:48;;;;;;;1.17;1.03;;;;;;;;;;5073691;28;20800;-79
2023/12/28 07:23:14;;;;;;;4.33;1.50;;;;;;;;;;5079147;28;20594;-78
2023/12/28 07:25:40;;;;;;;1.13;0.80;;;;;;;;;;5073415;28;20179;-78
2023/12/28 07:28:06;;;;;;;3.57;1.43;;;;;;;;;;5059509;28;20692;-77
2023/12/28 07:30:32;;;;;;;1.70;1.27;;;;;;;;;;5078453;28;20206;-78
2023/12/28 07:32:58;;;;;;;2.10;1.17;;;;;;;;;;5081879;28;20206;-78
2023/12/28 07:35:24;;;;;;;2.00;0.87;;;;;;;;;;5079519;28;20602;-78
2023/12/28 07:37:50;;;;;;;5.00;1.00;;;;;;;;;;5081342;28;20216;-78
2023/12/28 07:40:17;;;;;;;1.30;1.07;;;;;;;;;;5079160;28;20276;-77
2023/12/28 07:42:43;;;;;;;1.60;1.27;;;;;;;;;;5078902;28;20256;-78
2023/12/28 07:45:09;;;;;;;3.73;1.17;;;;;;;;;;5065535;28;20209;-78
2023/12/28 07:47:35;;;;;;;7.10;1.30;;;;;;;;;;5081953;28;20211;-78
2023/12/28 07:50:01;;;;;;;1.97;0.83;;;;;;;;;;5081922;28;20223;-78
2023/12/28 07:52:27;;;;;;;1.93;1.07;;;;;;;;;;5078884;28;20622;-78
2023/12/28 07:54:53;;;;;;;2.33;1.20;;;;;;;;;;5076878;28;20211;-78
2023/12/28 07:57:19;;;;;;;2.27;1.10;;;;;;;;;;5080282;28;20214;-80
2023/12/28 07:59:45;;;;;;;1.83;0.90;;;;;;;;;;5085533;28;20222;-79
2023/12/28 08:02:11;;;;;;;2.07;1.13;;;;;;;;;;5094405;28;20179;-78
2023/12/28 08:04:37;;;;;;;3.43;1.10;;;;;;;;;;5089936;28;20203;-78
2023/12/28 08:07:04;;;;;;;2.70;1.20;;;;;;;;;;5091448;28;20245;-79
2023/12/28 08:09:30;;;;;;;1.40;1.00;;;;;;;;;;5091631;28;20214;-79
2023/12/28 08:11:56;;;;;;;1.97;1.10;;;;;;;;;;5094414;28;20225;-78
2023/12/28 08:14:22;;;;;;;1.23;0.93;;;;;;;;;;5088502;28;20210;-79
2023/12/28 08:16:48;;;;;;;2.07;1.10;;;;;;;;;;5086141;28;20197;-79
2023/12/28 08:19:14;;;;;;;2.20;1.40;;;;;;;;;;5081714;28;20210;-78
2023/12/28 08:21:40;;;;;;;1.33;0.90;;;;;;;;;;5083430;28;20583;-79
2023/12/28 08:24:06;;;;;;;2.03;1.27;;;;;;;;;;5086550;28;20293;-78
2023/12/28 08:26:32;;;;;;;1.40;1.00;;;;;;;;;;5085817;28;20238;-79
2023/12/28 08:28:59;;;;;;;2.93;1.23;;;;;;;;;;5089452;28;20225;-79
2023/12/28 08:31:25;;;;;;;1.93;1.00;;;;;;;;;;5086213;28;20236;-79
2023/12/28 08:33:51;;;;;;;1.73;1.00;;;;;;;;;;5088356;28;20251;-81
2023/12/28 08:36:20;;;;;;;3.00;1.37;;;;;;;;;;5077403;28;20219;-79
2023/12/28 08:38:46;;;;;;;1.60;1.20;;;;;;;;;;5088681;28;20224;-78
2023/12/28 08:41:18;;;;;;;3.83;1.20;;;;;;;;;;5088751;28;20179;-79
2023/12/28 08:43:44;;;;;;;2.80;1.20;;;;;;;;;;5082251;28;20193;-79
2023/12/28 08:46:10;;;;;;;2.50;1.40;;;;;;;;;;5086351;28;20210;-79
2023/12/28 08:48:36;;;;;;;1.50;1.20;;;;;;;;;;5082826;28;20206;-79
2023/12/28 08:51:03;;;;;;;3.60;1.30;;;;;;;;;;5075883;28;20242;-78
2023/12/28 08:53:37;;;;;;;3.87;1.53;;;;;;;;;;5089629;28;20178;-79
2023/12/28 08:56:03;;;;;;;5.27;1.17;;;;;;;;;;5078257;28;20163;-79
2023/12/28 08:58:29;;;;;;;2.00;1.33;;;;;;;;;;5087293;28;20215;-79
2023/12/28 09:00:55;;;;;;;2.87;1.50;;;;;;;;;;5088526;28;20236;-79
2023/12/28 09:03:21;;;;;;;4.23;1.27;;;;;;;;;;5086919;28;20213;-79
2023/12/28 09:05:47;;;;;;;1.93;1.20;;;;;;;;;;5082537;28;20237;-79
2023/12/28 09:08:13;;;;;;;1.43;1.33;;;;;;;;;;5088382;28;20251;-79
2023/12/28 09:10:41;;;;;;;2.47;1.40;;;;;;;;;;5085378;28;20182;-79
2023/12/28 09:13:07;;;;;;;2.80;1.63;;;;;;;;;;5092196;28;20267;-79
2023/12/28 09:15:33;;;;;;;1.73;1.10;;;;;;;;;;5091238;28;20910;-78
2023/12/28 09:17:59;;;;;;;3.47;1.10;;;;;;;;;;5093156;28;20310;-79
2023/12/28 09:20:25;;;;;;;2.53;1.33;;;;;;;;;;5091142;28;20236;-78
2023/12/28 09:22:56;;;;;;;3.27;1.30;;;;;;;;;;5085534;28;20318;-79
2023/12/28 09:25:21;;;;;;;4.13;1.60;;;;;;;;;;5078931;28;20206;-79
2023/12/28 09:27:47;;;;;;;2.37;1.00;;;;;;;;;;5085090;28;20215;-78
2023/12/28 09:30:20;;;;;;;4.07;1.40;;;;;;;;;;5086851;28;20214;-82
2023/12/28 09:32:46;;;;;;;1.73;1.30;;;;;;;;;;5085205;28;20206;-80
2023/12/28 09:35:12;;;;;;;2.03;1.37;;;;;;;;;;5082585;28;20592;-79
2023/12/28 09:37:38;;;;;;;3.87;1.20;;;;;;;;;;5086606;28;20266;-79
2023/12/28 09:40:04;;;;;;;1.43;1.23;;;;;;;;;;5096728;28;20293;-79
2023/12/28 09:42:33;;;;;;;3.23;1.83;;;;;;;;;;5095318;28;20805;-78
2023/12/28 09:44:59;;;;;;;3.20;1.27;;;;;;;;;;5083535;28;20275;-79
2023/12/28 09:47:25;;;;;;;2.43;1.20;;;;;;;;;;5098971;28;20182;-78
2023/12/28 09:49:51;;;;;;;2.47;1.33;;;;;;;;;;5093637;28;20282;-79
2023/12/28 09:52:17;;;;;;;2.80;1.33;;;;;;;;;;5094111;28;20202;-79
2023/12/28 09:54:43;;;;;;;2.40;1.40;;;;;;;;;;5088378;28;20225;-76
2023/12/28 09:57:10;;;;;;;3.03;1.40;;;;;;;;;;5093054;28;20585;-79
2023/12/28 09:59:36;;;;;;;1.83;1.20;;;;;;;;;;5084272;28;20223;-78
2023/12/28 10:02:03;;;;;;;1.37;1.00;;;;;;;;;;5083944;28;20534;-79
2023/12/28 10:04:29;;;;;;;2.50;1.37;;;;;;;;;;5082647;28;20211;-79
2023/12/28 10:06:55;;;;;;;1.87;1.40;;;;;;;;;;5082448;28;20206;-79
2023/12/28 10:09:22;;;;;;;2.40;1.60;;;;;;;;;;5082232;28;20221;-76
2023/12/28 10:11:48;;;;;;;2.80;1.50;;;;;;;;;;5086496;28;20210;-78
2023/12/28 10:14:14;;;;;;;3.23;1.43;;;;;;;;;;5085217;28;20190;-78
2023/12/28 10:16:41;;;;;;;4.17;1.60;;;;;;;;;;5084633;28;20178;-78
2023/12/28 10:19:07;;;;;;;3.60;1.70;;;;;;;;;;5092661;28;20221;-79
2023/12/28 10:21:34;;;;;;;1.97;1.33;;;;;;;;;;5087474;28;20207;-79
2023/12/28 10:24:00;;;;;;;2.93;1.63;;;;;;;;;;5087514;28;20202;-79
2023/12/28 10:26:27;;;;;;;2.83;1.43;;;;;;;;;;5076198;28;20183;-79
2023/12/28 10:28:57;;;;;;;2.93;1.50;;;;;;;;;;5087185;28;20198;-79
2023/12/28 10:31:23;;;;;;;3.50;1.33;;;;;;;;;;5084204;28;20210;-77
2023/12/28 10:33:49;;;;;;;2.23;1.20;;;;;;;;;;5085597;28;20286;-79
2023/12/28 10:36:16;;;;;;;1.70;1.27;;;;;;;;;;5086843;28;20213;-79
2023/12/28 10:38:44;;;;;;;1.73;1.47;;;;;;;;;;5085989;28;20273;-79
2023/12/28 10:41:10;;;;;;;2.10;1.40;;;;;;;;;;5082738;28;20198;-79
2023/12/28 10:44:03;;;;;;;2.83;1.40;;;;;;;;;;5068300;28;20234;-79
2023/12/28 10:46:31;;;;;;;2.77;1.30;;;;;;;;;;5079125;28;20235;-78
2023/12/28 10:49:06;;;;;;;2.77;1.20;;;;;;;;;;5086558;28;20211;-79
2023/12/28 10:51:36;;;;;;;3.20;1.50;;;;;;;;;;5084394;28;20509;-79
2023/12/28 10:54:21;;;;;;;2.63;1.40;;;;;;;;;;5082561;28;20739;-79
2023/12/28 10:56:48;;;;;;;5.03;1.70;;;;;;;;;;5082408;28;20209;-79
2023/12/28 10:59:23;;;;;;;1.23;1.13;;;;;;;;;;5084252;28;20248;-78
2023/12/28 11:01:51;;;;;;;2.10;1.43;;;;;;;;;;5084560;28;20181;-79
2023/12/28 11:04:26;;;;;;;1.63;1.27;;;;;;;;;;5084699;28;20194;-79
2023/12/28 11:06:53;;;;;;;2.73;1.70;;;;;;;;;;5065708;28;20229;-78
2023/12/28 11:09:20;;;;;;;1.87;1.30;;;;;;;;;;5078378;28;20206;-77
2023/12/28 11:11:47;;;;;;;2.60;1.63;;;;;;;;;;5080769;28;20210;-78
2023/12/28 11:14:14;;;;;;;3.20;1.37;;;;;;;;;;5079218;28;20604;-77
2023/12/28 11:16:41;;;;;;;3.03;1.43;;;;;;;;;;5080130;28;20642;-78
2023/12/28 11:19:08;;;;;;;3.30;1.77;;;;;;;;;;5082380;28;20225;-79
2023/12/28 11:21:34;;;;;;;2.93;1.67;;;;;;;;;;5085133;28;20241;-79
2023/12/28 11:24:00;;;;;;;3.60;1.50;;;;;;;;;;5088355;28;20746;-79
2023/12/28 11:26:28;;;;;;;2.87;1.57;;;;;;;;;;5061222;28;20197;-79
2023/12/28 11:29:20;;;;;;;2.63;1.50;;;;;;;;;;5081164;28;20201;-79
2023/12/28 11:31:51;;;;;;;5.57;2.10;;;;;;;;;;5081514;28;20214;-80
2023/12/28 11:34:17;;;;;;;2.70;1.50;;;;;;;;;;5083257;28;20217;-79
2023/12/28 11:36:54;;;;;;;3.83;1.50;;;;;;;;;;5081279;28;20217;-79
2023/12/28 11:39:33;;;;;;;2.30;1.43;;;;;;;;;;5079162;28;20261;-80
2023/12/28 11:42:01;;;;;;;13.43;6.63;;;;;;;;;;5085814;28;20230;-79
2023/12/28 11:44:27;;;;;;;6.60;3.87;;;;;;;;;;5085246;28;20182;-79
2023/12/28 11:46:53;;;;;;;2.90;1.67;;;;;;;;;;5085339;28;20182;-79
2023/12/28 11:49:26;;;;;;;1.80;1.40;;;;;;;;;;5087488;28;20255;-80
2023/12/28 11:51:55;;;;;;;2.83;1.50;;;;;;;;;;5085260;28;20348;-80
2023/12/28 11:54:21;;;;;;;2.23;1.17;;;;;;;;;;5086921;28;20203;-78
2023/12/28 11:56:47;;;;;;;3.97;1.47;;;;;;;;;;5083028;28;20207;-78
2023/12/28 11:59:13;;;;;;;3.13;1.63;;;;;;;;;;5083915;28;20221;-78
2023/12/28 12:01:39;;;;;;;3.37;1.37;;;;;;;;;;5088031;28;20174;-79
2023/12/28 12:04:07;;;;;;;2.80;1.20;;;;;;;;;;5076374;28;20203;-79
2023/12/28 12:06:33;;;;;;;2.87;1.03;;;;;;;;;;5086068;28;20220;-76
2023/12/28 12:08:59;;;;;;;4.33;1.10;;;;;;;;;;5090437;28;20295;-79
2023/12/28 12:11:28;;;;;;;3.93;1.50;;;;;;;;;;5093142;28;20186;-79
2023/12/28 12:13:54;;;;;;;2.83;1.30;;;;;;;;;;5089326;28;20187;-79
2023/12/28 12:16:20;;;;;;;5.27;1.40;;;;;;;;;;5069327;28;20206;-79
2023/12/28 12:18:46;;;;;;;3.40;1.20;;;;;;;;;;5085626;28;20281;-79
2023/12/28 12:21:12;;;;;;;6.87;1.60;;;;;;;;;;5086008;28;20218;-79
2023/12/28 12:23:40;;;;;;;2.43;1.27;;;;;;;;;;5090768;28;20211;-80
2023/12/28 12:26:06;;;;;;;4.00;1.40;;;;;;;;;;5082747;28;20190;-79
2023/12/28 12:28:32;;;;;;;2.23;1.40;;;;;;;;;;5089675;28;20222;-79
2023/12/28 12:31:01;;;;;;;3.67;1.43;;;;;;;;;;5088534;28;20491;-79
2023/12/28 12:33:27;;;;;;;2.70;1.23;;;;;;;;;;5085820;28;20215;-79
2023/12/28 12:35:54;;;;;;;4.90;1.13;;;;;;;;;;5070311;28;20244;-79
2023/12/28 12:38:20;;;;;;;3.10;1.40;;;;;;;;;;5084046;28;20206;-79
2023/12/28 12:40:46;;;;;;;3.20;1.70;;;;;;;;;;5087645;28;20171;-79
2023/12/28 12:43:12;;;;;;;3.30;1.13;;;;;;;;;;5073345;28;20206;-79
2023/12/28 12:45:39;;;;;;;6.07;1.47;;;;;;;;;;5086793;28;20207;-79
2023/12/28 12:48:05;;;;;;;3.80;1.17;;;;;;;;;;5087165;28;20237;-79
2023/12/28 12:50:32;;;;;;;2.60;1.50;;;;;;;;;;5089656;28;20225;-79
2023/12/28 12:53:01;;;;;;;3.47;1.40;;;;;;;;;;5087921;28;20819;-81
2023/12/28 12:55:27;;;;;;;3.37;1.50;;;;;;;;;;5084310;28;20294;-79
2023/12/28 12:57:56;;;;;;;2.53;1.27;;;;;;;;;;5068520;28;20215;-78
2023/12/28 13:00:22;;;;;;;3.10;1.30;;;;;;;;;;5090335;28;20277;-79
2023/12/28 13:02:53;;;;;;;2.60;1.10;;;;;;;;;;5086629;28;20226;-79
2023/12/28 13:05:19;;;;;;;1.73;1.10;;;;;;;;;;5086530;28;20174;-78
2023/12/28 13:07:45;;;;;;;2.77;1.37;;;;;;;;;;5086893;28;20205;-78
2023/12/28 13:10:11;;;;;;;3.47;1.20;;;;;;;;;;5081801;28;20597;-79
2023/12/28 13:12:37;;;;;;;2.50;1.80;;;;;;;;;;5083909;28;20236;-80
2023/12/28 13:15:03;;;;;;;1.93;1.30;;;;;;;;;;5088395;28;20353;-79
2023/12/28 13:17:29;;;;;;;1.87;1.00;;;;;;;;;;5087794;28;20182;-79
2023/12/28 13:19:55;;;;;;;2.17;1.10;;;;;;;;;;5087514;28;20301;-78
2023/12/28 13:22:21;;;;;;;5.67;1.73;;;;;;;;;;5090119;28;20214;-79
2023/12/28 13:24:48;;;;;;;4.43;1.53;;;;;;;;;;5080092;28;20600;-79
2023/12/28 13:27:14;;;;;;;2.87;1.30;;;;;;;;;;5091314;28;20233;-79
2023/12/28 13:29:40;;;;;;;1.67;0.90;;;;;;;;;;5095147;28;20218;-77
2023/12/28 13:32:06;;;;;;;1.50;0.90;;;;;;;;;;5091852;28;20214;-79
2023/12/28 13:34:33;;;;;;;4.50;1.40;;;;;;;;;;5095734;28;20261;-79
2023/12/28 13:37:01;;;;;;;2.67;1.20;;;;;;;;;;5091133;28;20225;-79
2023/12/28 13:39:28;;;;;;;2.70;1.33;;;;;;;;;;5096946;28;20211;-79
2023/12/28 13:41:54;;;;;;;5.10;1.47;;;;;;;;;;5095480;28;20608;-79
2023/12/28 13:44:20;;;;;;;1.83;1.27;;;;;;;;;;5094035;28;20183;-80
2023/12/28 13:46:46;;;;;;;2.80;1.40;;;;;;;;;;5092980;28;20198;-78
2023/12/28 13:49:12;;;;;;;1.13;0.87;;;;;;;;;;5092071;28;20207;-79
2023/12/28 13:51:38;;;;;;;3.00;1.20;;;;;;;;;;5078337;28;20217;-78
2023/12/28 13:54:05;;;;;;;2.43;1.53;;;;;;;;;;5097780;28;20760;-79
2023/12/28 13:56:31;;;;;;;2.60;1.33;;;;;;;;;;5075746;28;20221;-79
2023/12/28 13:58:57;;;;;;;3.07;1.27;;;;;;;;;;5088199;28;20215;-79
2023/12/28 14:01:23;;;;;;;1.83;1.30;;;;;;;;;;5088420;28;20214;-78
2023/12/28 14:03:51;;;;;;;3.47;1.00;;;;;;;;;;5087163;28;20230;-78
2023/12/28 14:06:18;;;;;;;5.40;1.33;;;;;;;;;;5085841;28;20203;-78
2023/12/28 14:08:44;;;;;;;4.70;1.27;;;;;;;;;;5087772;28;20221;-79
2023/12/28 14:11:10;;;;;;;4.27;1.23;;;;;;;;;;5080433;28;20175;-78
2023/12/28 14:13:36;;;;;;;2.93;1.30;;;;;;;;;;5084596;28;20241;-78
2023/12/28 14:16:10;;;;;;;9.80;1.50;;;;;;;;;;5048406;27;1403693;-80
2023/12/28 14:18:36;;;;;;;2.10;1.13;;;;;;;;;;5090925;28;20764;-79
2023/12/28 14:21:03;;;;;;;3.40;1.40;;;;;;;;;;5073791;28;20214;-79
2023/12/28 14:23:29;;;;;;;1.17;0.87;;;;;;;;;;5074460;28;20174;-79
2023/12/28 14:25:55;;;;;;;2.83;1.80;;;;;;;;;;5093404;28;20177;-79
2023/12/28 14:28:24;;;;;;;4.57;1.47;;;;;;;;;;5103896;28;20218;-78
2023/12/28 14:30:50;;;;;;;4.73;1.20;;;;;;;;;;5109298;28;20205;-80
2023/12/28 14:33:16;;;;;;;2.70;1.50;;;;;;;;;;5091618;28;20210;-79
2023/12/28 14:35:42;;;;;;;3.60;1.40;;;;;;;;;;5100652;28;20226;-79
2023/12/28 14:38:08;;;;;;;2.30;1.20;;;;;;;;;;5094578;28;20253;-79
2023/12/28 14:40:34;;;;;;;4.80;1.60;;;;;;;;;;5094349;28;20577;-79